sensor_id;sensor_type;location;lat;lon;timestamp;pressure;altitude;pressure_sealevel;temperature;humidity
79584;BME280;69053;57.338;18.700;2023-08-01T00:01:17;100086.31;;;13.16;87.87
79584;BME280;69053;57.338;18.700;2023-08-01T00:04:18;100075.28;;;13.10;88.11
79584;BME280;69053;57.338;18.700;2023-08-01T00:07:18;100071.66;;;13.05;87.92
79584;BME280;69053;57.338;18.700;2023-08-01T00:10:22;100066.91;;;13.00;87.40
79584;BME280;69053;57.338;18.700;2023-08-01T00:13:25;100061.94;;;12.97;87.76
79584;BME280;69053;57.338;18.700;2023-08-01T00:16:54;100052.25;;;12.89;87.71
79584;BME280;69053;57.338;18.700;2023-08-01T00:20:09;100051.88;;;12.86;87.81
79584;BME280;69053;57.338;18.700;2023-08-01T00:23:09;100048.25;;;12.80;87.97
79584;BME280;69053;57.338;18.700;2023-08-01T00:26:10;100048.97;;;12.75;87.24
79584;BME280;69053;57.338;18.700;2023-08-01T00:29:11;100040.72;;;12.70;87.26
79584;BME280;69053;57.338;18.700;2023-08-01T00:32:12;100039.44;;;12.61;87.99
79584;BME280;69053;57.338;18.700;2023-08-01T00:35:13;100034.38;;;12.53;87.72
79584;BME280;69053;57.338;18.700;2023-08-01T00:38:13;100027.75;;;12.49;87.92
79584;BME280;69053;57.338;18.700;2023-08-01T00:41:14;100021.47;;;12.48;88.21
79584;BME280;69053;57.338;18.700;2023-08-01T00:44:15;100018.84;;;12.53;87.99
79584;BME280;69053;57.338;18.700;2023-08-01T00:47:16;100015.34;;;12.58;87.68
79584;BME280;69053;57.338;18.700;2023-08-01T00:50:17;100008.34;;;12.62;88.31
79584;BME280;69053;57.338;18.700;2023-08-01T00:53:20;100006.19;;;12.64;88.12
79584;BME280;69053;57.338;18.700;2023-08-01T00:56:21;100000.72;;;12.64;87.78
79584;BME280;69053;57.338;18.700;2023-08-01T00:59:22;99995.50;;;12.63;88.44
79584;BME280;69053;57.338;18.700;2023-08-01T01:02:23;99994.34;;;12.59;87.47
79584;BME280;69053;57.338;18.700;2023-08-01T01:05:24;99987.13;;;12.52;87.53
79584;BME280;69053;57.338;18.700;2023-08-01T01:08:26;99981.81;;;12.46;87.76
79584;BME280;69053;57.338;18.700;2023-08-01T01:11:27;99980.56;;;12.36;88.18
79584;BME280;69053;57.338;18.700;2023-08-01T01:14:31;99970.28;;;12.27;88.04
79584;BME280;69053;57.338;18.700;2023-08-01T01:17:32;99969.63;;;12.19;88.41
79584;BME280;69053;57.338;18.700;2023-08-01T01:20:36;99957.16;;;12.12;88.39
79584;BME280;69053;57.338;18.700;2023-08-01T01:23:37;99958.66;;;12.03;88.74
79584;BME280;69053;57.338;18.700;2023-08-01T01:26:40;99961.75;;;11.94;88.66
79584;BME280;69053;57.338;18.700;2023-08-01T01:29:43;99965.47;;;11.88;88.86
79584;BME280;69053;57.338;18.700;2023-08-01T01:32:44;99959.66;;;11.85;88.91
79584;BME280;69053;57.338;18.700;2023-08-01T01:35:47;99958.00;;;11.83;88.61
79584;BME280;69053;57.338;18.700;2023-08-01T01:38:47;99961.28;;;11.86;88.98
79584;BME280;69053;57.338;18.700;2023-08-01T01:41:51;99955.97;;;11.91;88.95
79584;BME280;69053;57.338;18.700;2023-08-01T01:44:54;99954.16;;;11.96;88.60
79584;BME280;69053;57.338;18.700;2023-08-01T01:47:54;99950.94;;;11.99;88.55
79584;BME280;69053;57.338;18.700;2023-08-01T01:50:55;99951.28;;;12.03;88.88
79584;BME280;69053;57.338;18.700;2023-08-01T01:53:56;99957.69;;;12.09;88.59
79584;BME280;69053;57.338;18.700;2023-08-01T01:56:56;99947.94;;;12.13;88.61
79584;BME280;69053;57.338;18.700;2023-08-01T01:59:57;99948.25;;;12.16;88.57
79584;BME280;69053;57.338;18.700;2023-08-01T02:02:59;99945.03;;;12.19;88.87
79584;BME280;69053;57.338;18.700;2023-08-01T02:06:00;99945.38;;;12.23;88.66
79584;BME280;69053;57.338;18.700;2023-08-01T02:09:05;99945.94;;;12.25;88.90
79584;BME280;69053;57.338;18.700;2023-08-01T02:12:08;99933.72;;;12.28;88.84
79584;BME280;69053;57.338;18.700;2023-08-01T02:15:13;99934.06;;;12.31;88.84
79584;BME280;69053;57.338;18.700;2023-08-01T02:18:14;99926.44;;;12.33;89.03
79584;BME280;69053;57.338;18.700;2023-08-01T02:21:14;99924.28;;;12.35;88.96
79584;BME280;69053;57.338;18.700;2023-08-01T02:24:15;99921.56;;;12.35;89.01
79584;BME280;69053;57.338;18.700;2023-08-01T02:27:17;99922.66;;;12.34;89.02
79584;BME280;69053;57.338;18.700;2023-08-01T02:30:21;99924.28;;;12.35;89.17
79584;BME280;69053;57.338;18.700;2023-08-01T02:33:31;99910.88;;;12.34;89.55
79584;BME280;69053;57.338;18.700;2023-08-01T02:36:34;99922.66;;;12.34;89.03
79584;BME280;69053;57.338;18.700;2023-08-01T02:39:35;99922.97;;;12.38;89.23
79584;BME280;69053;57.338;18.700;2023-08-01T02:42:40;99908.72;;;12.36;89.21
79584;BME280;69053;57.338;18.700;2023-08-01T02:45:41;99910.38;;;12.37;89.05
79584;BME280;69053;57.338;18.700;2023-08-01T02:48:42;99901.69;;;12.40;89.54
79584;BME280;69053;57.338;18.700;2023-08-01T02:51:46;99897.88;;;12.41;89.40
79584;BME280;69053;57.338;18.700;2023-08-01T02:54:54;99891.09;;;12.44;89.41
79584;BME280;69053;57.338;18.700;2023-08-01T02:57:57;99891.69;;;12.46;88.95
79584;BME280;69053;57.338;18.700;2023-08-01T03:00:58;99890.03;;;12.45;89.21
79584;BME280;69053;57.338;18.700;2023-08-01T03:03:58;99894.66;;;12.44;89.11
79584;BME280;69053;57.338;18.700;2023-08-01T03:07:02;99890.03;;;12.45;89.31
79584;BME280;69053;57.338;18.700;2023-08-01T03:10:03;99883.97;;;12.43;89.64
79584;BME280;69053;57.338;18.700;2023-08-01T03:13:04;99888.63;;;12.42;89.32
79584;BME280;69053;57.338;18.700;2023-08-01T03:16:04;99883.41;;;12.41;89.64
79584;BME280;69053;57.338;18.700;2023-08-01T03:19:06;99884.50;;;12.40;89.24
79584;BME280;69053;57.338;18.700;2023-08-01T03:22:10;99883.41;;;12.41;89.33
79584;BME280;69053;57.338;18.700;2023-08-01T03:25:11;99873.06;;;12.43;89.42
79584;BME280;69053;57.338;18.700;2023-08-01T03:28:12;99874.72;;;12.44;89.53
79584;BME280;69053;57.338;18.700;2023-08-01T03:31:12;99878.84;;;12.46;89.47
79584;BME280;69053;57.338;18.700;2023-08-01T03:34:13;99882.41;;;12.47;89.27
79584;BME280;69053;57.338;18.700;2023-08-01T03:37:14;99870.41;;;12.48;89.34
79584;BME280;69053;57.338;18.700;2023-08-01T03:40:14;99871.00;;;12.50;89.45
79584;BME280;69053;57.338;18.700;2023-08-01T03:43:15;99865.53;;;12.50;89.33
79584;BME280;69053;57.338;18.700;2023-08-01T03:46:16;99867.75;;;12.53;89.63
79584;BME280;69053;57.338;18.700;2023-08-01T03:49:16;99861.28;;;12.59;89.46
79584;BME280;69053;57.338;18.700;2023-08-01T03:52:18;99860.88;;;12.67;89.75
79584;BME280;69053;57.338;18.700;2023-08-01T03:55:19;99864.81;;;12.76;89.75
79584;BME280;69053;57.338;18.700;2023-08-01T03:58:20;99864.97;;;12.87;89.38
79584;BME280;69053;57.338;18.700;2023-08-01T04:01:20;99851.69;;;12.95;89.05
79584;BME280;69053;57.338;18.700;2023-08-01T04:04:21;99855.13;;;13.08;88.85
79584;BME280;69053;57.338;18.700;2023-08-01T04:07:22;99848.97;;;13.18;89.56
79584;BME280;69053;57.338;18.700;2023-08-01T04:10:25;99848.13;;;13.34;89.95
79584;BME280;69053;57.338;18.700;2023-08-01T04:13:27;99839.75;;;13.46;90.12
79584;BME280;69053;57.338;18.700;2023-08-01T04:16:32;99830.06;;;13.60;89.63
79584;BME280;69053;57.338;18.700;2023-08-01T04:19:36;99826.31;;;13.72;89.52
79584;BME280;69053;57.338;18.700;2023-08-01T04:22:37;99827.53;;;13.81;89.55
79584;BME280;69053;57.338;18.700;2023-08-01T04:25:40;99827.06;;;13.89;89.81
79584;BME280;69053;57.338;18.700;2023-08-01T04:28:45;99823.53;;;13.94;89.31
79584;BME280;69053;57.338;18.700;2023-08-01T04:31:49;99823.81;;;13.97;89.13
79584;BME280;69053;57.338;18.700;2023-08-01T04:34:50;99824.13;;;14.01;89.67
79584;BME280;69053;57.338;18.700;2023-08-01T04:37:55;99823.09;;;14.07;89.91
79584;BME280;69053;57.338;18.700;2023-08-01T04:40:55;99817.09;;;14.10;89.36
79584;BME280;69053;57.338;18.700;2023-08-01T04:43:56;99827.25;;;14.15;89.98
79584;BME280;69053;57.338;18.700;2023-08-01T04:46:57;99820.44;;;14.17;89.60
79584;BME280;69053;57.338;18.700;2023-08-01T04:49:57;99824.31;;;14.21;89.30
79584;BME280;69053;57.338;18.700;2023-08-01T04:52:58;99819.97;;;14.25;89.52
79584;BME280;69053;57.338;18.700;2023-08-01T04:55:59;99821.91;;;14.30;89.71
79584;BME280;69053;57.338;18.700;2023-08-01T04:59:00;99812.91;;;14.35;89.97
79584;BME280;69053;57.338;18.700;2023-08-01T05:02:02;99817.84;;;14.38;89.90
79584;BME280;69053;57.338;18.700;2023-08-01T05:05:05;99811.84;;;14.41;89.71
79584;BME280;69053;57.338;18.700;2023-08-01T05:08:08;99815.44;;;14.47;89.64
79584;BME280;69053;57.338;18.700;2023-08-01T05:11:11;99809.44;;;14.50;89.53
79584;BME280;69053;57.338;18.700;2023-08-01T05:14:12;99805.34;;;14.52;89.73
79584;BME280;69053;57.338;18.700;2023-08-01T05:17:12;99811.69;;;14.58;90.11
79584;BME280;69053;57.338;18.700;2023-08-01T05:20:13;99808.16;;;14.62;89.81
79584;BME280;69053;57.338;18.700;2023-08-01T05:23:35;99812.88;;;14.67;89.89
79584;BME280;69053;57.338;18.700;2023-08-01T05:26:36;99809.59;;;14.70;90.13
79584;BME280;69053;57.338;18.700;2023-08-01T05:29:39;99804.97;;;14.76;89.86
79584;BME280;69053;57.338;18.700;2023-08-01T05:32:40;99802.81;;;14.83;89.96
79584;BME280;69053;57.338;18.700;2023-08-01T05:35:41;99796.81;;;14.91;89.84
79584;BME280;69053;57.338;18.700;2023-08-01T05:38:44;99803.41;;;15.00;89.73
79584;BME280;69053;57.338;18.700;2023-08-01T05:41:44;99805.13;;;15.12;89.66
79584;BME280;69053;57.338;18.700;2023-08-01T05:44:45;99794.75;;;15.24;89.93
79584;BME280;69053;57.338;18.700;2023-08-01T05:47:46;99787.63;;;15.38;89.68
79584;BME280;69053;57.338;18.700;2023-08-01T05:50:49;99792.59;;;15.52;90.01
79584;BME280;69053;57.338;18.700;2023-08-01T05:53:50;99791.00;;;15.66;89.91
79584;BME280;69053;57.338;18.700;2023-08-01T05:56:51;99796.28;;;15.78;89.96
79584;BME280;69053;57.338;18.700;2023-08-01T05:59:54;99799.00;;;15.88;89.92
79584;BME280;69053;57.338;18.700;2023-08-01T06:03:05;99796.81;;;15.96;90.11
79584;BME280;69053;57.338;18.700;2023-08-01T06:06:06;99795.44;;;16.03;90.25
79584;BME280;69053;57.338;18.700;2023-08-01T06:09:06;99789.94;;;16.08;89.96
79584;BME280;69053;57.338;18.700;2023-08-01T06:12:07;99788.31;;;16.12;89.86
79584;BME280;69053;57.338;18.700;2023-08-01T06:15:08;99783.34;;;16.15;90.03
79584;BME280;69053;57.338;18.700;2023-08-01T06:18:09;99787.47;;;16.17;89.60
79584;BME280;69053;57.338;18.700;2023-08-01T06:21:20;99787.19;;;16.19;89.68
79584;BME280;69053;57.338;18.700;2023-08-01T06:24:24;99796.50;;;16.23;89.42
79584;BME280;69053;57.338;18.700;2023-08-01T06:47:59;99793.16;;;16.62;89.38
79584;BME280;69053;57.338;18.700;2023-08-01T06:51:37;99798.63;;;16.72;88.92
79584;BME280;69053;57.338;18.700;2023-08-01T06:54:39;99803.03;;;16.78;89.32
79584;BME280;69053;57.338;18.700;2023-08-01T06:57:47;99789.81;;;16.80;88.73
79584;BME280;69053;57.338;18.700;2023-08-01T07:00:47;99788.41;;;16.83;88.89
79584;BME280;69053;57.338;18.700;2023-08-01T07:03:48;99784.84;;;16.87;88.53
79584;BME280;69053;57.338;18.700;2023-08-01T07:06:48;99784.84;;;16.93;88.45
79584;BME280;69053;57.338;18.700;2023-08-01T07:09:49;99790.03;;;16.99;88.58
79584;BME280;69053;57.338;18.700;2023-08-01T07:12:49;99785.34;;;17.05;88.08
79584;BME280;69053;57.338;18.700;2023-08-01T07:27:15;99781.50;;;17.06;87.73
79584;BME280;69053;57.338;18.700;2023-08-01T07:31:03;99779.00;;;17.04;87.19
79584;BME280;69053;57.338;18.700;2023-08-01T07:34:41;99777.34;;;17.03;86.87
79584;BME280;69053;57.338;18.700;2023-08-01T07:55:40;99758.22;;;17.33;85.37
79584;BME280;69053;57.338;18.700;2023-08-01T07:59:01;99763.38;;;17.44;85.36
79584;BME280;69053;57.338;18.700;2023-08-01T08:02:02;99759.19;;;17.57;84.99
79584;BME280;69053;57.338;18.700;2023-08-01T08:05:03;99766.47;;;17.72;84.64
79584;BME280;69053;57.338;18.700;2023-08-01T08:08:04;99761.19;;;17.86;84.70
79584;BME280;69053;57.338;18.700;2023-08-01T08:11:05;99758.41;;;17.91;84.26
79584;BME280;69053;57.338;18.700;2023-08-01T08:14:06;99752.06;;;17.91;83.51
79584;BME280;69053;57.338;18.700;2023-08-01T08:17:06;99757.31;;;17.87;84.15
79584;BME280;69053;57.338;18.700;2023-08-01T08:20:07;99757.03;;;17.89;84.16
79584;BME280;69053;57.338;18.700;2023-08-01T08:23:08;99751.38;;;18.04;83.67
79584;BME280;69053;57.338;18.700;2023-08-01T08:26:09;99748.38;;;18.30;82.99
79584;BME280;69053;57.338;18.700;2023-08-01T08:29:09;99749.00;;;18.51;82.03
79584;BME280;69053;57.338;18.700;2023-08-01T08:32:10;99743.28;;;18.66;80.59
79584;BME280;69053;57.338;18.700;2023-08-01T08:35:11;99746.38;;;18.89;80.10
79584;BME280;69053;57.338;18.700;2023-08-01T08:38:11;99740.06;;;19.07;79.62
79584;BME280;69053;57.338;18.700;2023-08-01T08:41:20;99747.03;;;19.24;77.95
79584;BME280;69053;57.338;18.700;2023-08-01T08:44:21;99749.31;;;19.36;77.33
79584;BME280;69053;57.338;18.700;2023-08-01T08:47:25;99735.97;;;19.43;75.70
79584;BME280;69053;57.338;18.700;2023-08-01T08:50:29;99734.25;;;19.47;75.19
79584;BME280;69053;57.338;18.700;2023-08-01T08:53:31;99746.50;;;19.60;75.04
79584;BME280;69053;57.338;18.700;2023-08-01T08:56:34;99744.38;;;19.71;73.95
79584;BME280;69053;57.338;18.700;2023-08-01T08:59:35;99744.03;;;19.77;73.14
79584;BME280;69053;57.338;18.700;2023-08-01T09:02:36;99744.97;;;19.86;73.16
79584;BME280;69053;57.338;18.700;2023-08-01T09:05:45;99748.56;;;19.87;72.46
79584;BME280;69053;57.338;18.700;2023-08-01T09:08:51;99738.84;;;19.90;73.38
79584;BME280;69053;57.338;18.700;2023-08-01T09:11:53;99741.53;;;19.95;73.14
79584;BME280;69053;57.338;18.700;2023-08-01T09:14:56;99742.03;;;19.97;72.66
79584;BME280;69053;57.338;18.700;2023-08-01T09:17:57;99748.84;;;19.85;73.40
79584;BME280;69053;57.338;18.700;2023-08-01T09:21:00;99740.34;;;19.63;73.53
79584;BME280;69053;57.338;18.700;2023-08-01T09:24:13;99740.16;;;19.40;73.70
79584;BME280;69053;57.338;18.700;2023-08-01T09:27:14;99748.78;;;19.15;74.73
79584;BME280;69053;57.338;18.700;2023-08-01T09:30:15;99747.31;;;19.03;75.67
79584;BME280;69053;57.338;18.700;2023-08-01T09:33:18;99733.56;;;18.98;76.00
79584;BME280;69053;57.338;18.700;2023-08-01T09:36:23;99728.28;;;19.02;76.36
79584;BME280;69053;57.338;18.700;2023-08-01T09:39:23;99730.53;;;19.19;76.28
79584;BME280;69053;57.338;18.700;2023-08-01T09:42:24;99724.94;;;19.43;75.59
79584;BME280;69053;57.338;18.700;2023-08-01T09:45:25;99732.69;;;19.60;74.66
79584;BME280;69053;57.338;18.700;2023-08-01T09:48:27;99722.16;;;19.81;74.53
79584;BME280;69053;57.338;18.700;2023-08-01T09:51:27;99720.34;;;20.04;73.55
79584;BME280;69053;57.338;18.700;2023-08-01T09:54:28;99718.75;;;20.17;72.91
79584;BME280;69053;57.338;18.700;2023-08-01T09:57:30;99717.63;;;20.32;72.74
79584;BME280;69053;57.338;18.700;2023-08-01T10:00:32;99715.09;;;20.49;71.85
79584;BME280;69053;57.338;18.700;2023-08-01T10:03:32;99715.50;;;20.56;71.89
79584;BME280;69053;57.338;18.700;2023-08-01T10:06:38;99715.00;;;20.54;71.26
79584;BME280;69053;57.338;18.700;2023-08-01T10:09:42;99709.56;;;20.49;71.86
79584;BME280;69053;57.338;18.700;2023-08-01T10:12:46;99702.91;;;20.50;71.92
79584;BME280;69053;57.338;18.700;2023-08-01T10:15:52;99708.31;;;20.41;72.41
79584;BME280;69053;57.338;18.700;2023-08-01T10:18:56;99709.63;;;20.30;72.76
79584;BME280;69053;57.338;18.700;2023-08-01T10:21:57;99702.78;;;20.14;73.36
79584;BME280;69053;57.338;18.700;2023-08-01T10:25:00;99694.88;;;20.07;73.87
79584;BME280;69053;57.338;18.700;2023-08-01T10:28:06;99704.19;;;20.11;74.29
79584;BME280;69053;57.338;18.700;2023-08-01T10:31:14;99690.88;;;19.99;74.32
79584;BME280;69053;57.338;18.700;2023-08-01T10:34:14;99686.44;;;19.84;75.24
79584;BME280;69053;57.338;18.700;2023-08-01T10:37:15;99688.84;;;19.72;75.58
79584;BME280;69053;57.338;18.700;2023-08-01T10:40:16;99686.75;;;19.64;76.64
79584;BME280;69053;57.338;18.700;2023-08-01T10:43:20;99676.28;;;19.80;76.56
79584;BME280;69053;57.338;18.700;2023-08-01T10:46:21;99677.56;;;20.01;76.78
79584;BME280;69053;57.338;18.700;2023-08-01T10:52:38;99674.91;;;19.96;77.30
79584;BME280;69053;57.338;18.700;2023-08-01T10:59:05;99657.81;;;20.08;78.61
79584;BME280;69053;57.338;18.700;2023-08-01T11:02:09;99662.09;;;20.00;78.94
79584;BME280;69053;57.338;18.700;2023-08-01T11:05:19;99655.84;;;19.95;78.89
79584;BME280;69053;57.338;18.700;2023-08-01T11:08:37;99666.50;;;19.88;79.42
79584;BME280;69053;57.338;18.700;2023-08-01T11:11:41;99665.25;;;19.94;79.47
79584;BME280;69053;57.338;18.700;2023-08-01T11:14:41;99663.00;;;19.96;79.68
79584;BME280;69053;57.338;18.700;2023-08-01T11:17:55;99658.22;;;20.01;79.35
79584;BME280;69053;57.338;18.700;2023-08-01T11:20:58;99661.50;;;20.03;79.70
79584;BME280;69053;57.338;18.700;2023-08-01T11:24:06;99653.28;;;19.98;79.73
79584;BME280;69053;57.338;18.700;2023-08-01T11:27:22;99657.56;;;19.91;80.15
79584;BME280;69053;57.338;18.700;2023-08-01T11:30:32;99645.50;;;19.86;80.45
79584;BME280;69053;57.338;18.700;2023-08-01T11:33:34;99646.41;;;19.82;80.34
79584;BME280;69053;57.338;18.700;2023-08-01T11:36:40;99641.81;;;19.77;80.45
79584;BME280;69053;57.338;18.700;2023-08-01T11:39:44;99643.56;;;19.68;80.82
79584;BME280;69053;57.338;18.700;2023-08-01T11:43:21;99639.16;;;19.53;81.10
79584;BME280;69053;57.338;18.700;2023-08-01T11:46:34;99648.53;;;19.52;81.56
79584;BME280;69053;57.338;18.700;2023-08-01T11:50:05;99642.47;;;19.69;81.64
79584;BME280;69053;57.338;18.700;2023-08-01T11:53:19;99648.34;;;19.81;81.23
79584;BME280;69053;57.338;18.700;2023-08-01T11:56:33;99644.47;;;19.82;80.95
79584;BME280;69053;57.338;18.700;2023-08-01T11:59:49;99641.81;;;19.77;81.13
79584;BME280;69053;57.338;18.700;2023-08-01T12:03:47;99643.75;;;19.58;81.36
79584;BME280;69053;57.338;18.700;2023-08-01T12:10:06;99659.50;;;19.24;81.05
79584;BME280;69053;57.338;18.700;2023-08-01T12:13:27;99657.34;;;19.02;81.05
79584;BME280;69053;57.338;18.700;2023-08-01T12:16:33;99655.31;;;18.89;80.48
79584;BME280;69053;57.338;18.700;2023-08-01T12:19:55;99666.94;;;18.86;80.32
79584;BME280;69053;57.338;18.700;2023-08-01T12:23:45;99654.19;;;18.90;80.61
79584;BME280;69053;57.338;18.700;2023-08-01T12:27:14;99651.28;;;19.00;80.56
79584;BME280;69053;57.338;18.700;2023-08-01T12:30:15;99643.75;;;19.06;79.64
79584;BME280;69053;57.338;18.700;2023-08-01T12:33:55;99648.25;;;19.02;79.69
79584;BME280;69053;57.338;18.700;2023-08-01T12:40:56;99650.22;;;18.96;80.30
79584;BME280;69053;57.338;18.700;2023-08-01T12:43:59;99645.13;;;18.89;80.73
79584;BME280;69053;57.338;18.700;2023-08-01T12:47:03;99649.28;;;18.87;80.36
79584;BME280;69053;57.338;18.700;2023-08-01T12:50:04;99646.81;;;18.85;80.49
79584;BME280;69053;57.338;18.700;2023-08-01T12:53:08;99652.31;;;18.85;80.88
79584;BME280;69053;57.338;18.700;2023-08-01T12:56:08;99644.28;;;18.89;80.61
79584;BME280;69053;57.338;18.700;2023-08-01T12:59:18;99649.56;;;18.85;79.86
79584;BME280;69053;57.338;18.700;2023-08-01T13:02:27;99649.28;;;18.63;80.27
79584;BME280;69053;57.338;18.700;2023-08-01T13:05:31;99643.03;;;18.57;80.95
79584;BME280;69053;57.338;18.700;2023-08-01T13:08:56;99645.84;;;18.52;81.03
79584;BME280;69053;57.338;18.700;2023-08-01T13:12:00;99633.22;;;18.46;82.00
79584;BME280;69053;57.338;18.700;2023-08-01T13:15:13;99617.81;;;18.45;82.63
79584;BME280;69053;57.338;18.700;2023-08-01T13:18:17;99616.16;;;18.44;82.64
79584;BME280;69053;57.338;18.700;2023-08-01T13:27:48;99601.28;;;18.45;83.83
79584;BME280;69053;57.338;18.700;2023-08-01T13:31:18;99608.56;;;18.35;83.97
79584;BME280;69053;57.338;18.700;2023-08-01T13:34:31;99594.81;;;18.30;84.21
79584;BME280;69053;57.338;18.700;2023-08-01T13:49:15;99580.84;;;18.46;84.76
79584;BME280;69053;57.338;18.700;2023-08-01T13:52:30;99575.56;;;18.49;84.35
79584;BME280;69053;57.338;18.700;2023-08-01T13:55:46;99570.25;;;18.53;84.99
79584;BME280;69053;57.338;18.700;2023-08-01T14:02:02;99553.78;;;18.48;85.04
79584;BME280;69053;57.338;18.700;2023-08-01T14:05:33;99555.97;;;18.51;85.36
79584;BME280;69053;57.338;18.700;2023-08-01T14:08:37;99547.63;;;18.56;85.86
79584;BME280;69053;57.338;18.700;2023-08-01T14:11:39;99545.22;;;18.68;85.46
79584;BME280;69053;57.338;18.700;2023-08-01T14:14:48;99540.69;;;18.78;85.60
79584;BME280;69053;57.338;18.700;2023-08-01T14:18:11;99536.16;;;18.87;85.42
79584;BME280;69053;57.338;18.700;2023-08-01T14:21:16;99536.19;;;19.01;85.21
79584;BME280;69053;57.338;18.700;2023-08-01T14:24:19;99537.91;;;19.16;84.95
79584;BME280;69053;57.338;18.700;2023-08-01T14:27:27;99529.94;;;19.28;84.86
79584;BME280;69053;57.338;18.700;2023-08-01T14:30:40;99536.59;;;19.41;84.36
79584;BME280;69053;57.338;18.700;2023-08-01T14:33:58;99537.16;;;19.43;84.21
79584;BME280;69053;57.338;18.700;2023-08-01T14:37:21;99527.50;;;19.40;84.20
79584;BME280;69053;57.338;18.700;2023-08-01T14:40:24;99527.50;;;19.40;83.95
79584;BME280;69053;57.338;18.700;2023-08-01T14:43:34;99527.59;;;19.35;83.88
79584;BME280;69053;57.338;18.700;2023-08-01T14:46:38;99529.25;;;19.36;83.78
79584;BME280;69053;57.338;18.700;2023-08-01T14:49:45;99524.84;;;19.35;83.43
79584;BME280;69053;57.338;18.700;2023-08-01T14:52:48;99531.25;;;19.30;83.58
79584;BME280;69053;57.338;18.700;2023-08-01T14:55:57;99526.78;;;19.35;83.37
79584;BME280;69053;57.338;18.700;2023-08-01T14:59:03;99529.84;;;19.33;83.30
79584;BME280;69053;57.338;18.700;2023-08-01T15:02:07;99527.19;;;19.28;83.12
79584;BME280;69053;57.338;18.700;2023-08-01T15:05:09;99527.28;;;19.23;83.32
79584;BME280;69053;57.338;18.700;2023-08-01T15:08:21;99530.13;;;19.18;83.07
79584;BME280;69053;57.338;18.700;2023-08-01T15:11:32;99530.22;;;19.13;83.28
79584;BME280;69053;57.338;18.700;2023-08-01T15:14:48;99534.88;;;18.98;83.59
79584;BME280;69053;57.338;18.700;2023-08-01T15:17:52;99532.94;;;18.99;84.10
79584;BME280;69053;57.338;18.700;2023-08-01T15:20:53;99540.22;;;19.08;83.51
79584;BME280;69053;57.338;18.700;2023-08-01T15:24:03;99535.66;;;19.18;83.65
79584;BME280;69053;57.338;18.700;2023-08-01T15:27:05;99535.78;;;19.26;82.84
79584;BME280;69053;57.338;18.700;2023-08-01T15:30:06;99536.50;;;19.32;82.66
79584;BME280;69053;57.338;18.700;2023-08-01T15:33:12;99535.06;;;19.35;82.41
79584;BME280;69053;57.338;18.700;2023-08-01T15:36:16;99533.13;;;19.35;82.19
79584;BME280;69053;57.338;18.700;2023-08-01T15:39:17;99539.06;;;19.42;81.61
79584;BME280;69053;57.338;18.700;2023-08-01T15:42:18;99540.63;;;19.48;81.54
79584;BME280;69053;57.338;18.700;2023-08-01T15:45:24;99540.63;;;19.48;81.40
79584;BME280;69053;57.338;18.700;2023-08-01T15:48:40;99534.91;;;19.45;81.40
79584;BME280;69053;57.338;18.700;2023-08-01T15:51:57;99521.69;;;19.42;81.61
79584;BME280;69053;57.338;18.700;2023-08-01T15:55:02;99529.56;;;19.35;81.67
79584;BME280;69053;57.338;18.700;2023-08-01T15:58:04;99534.34;;;19.29;81.82
79584;BME280;69053;57.338;18.700;2023-08-01T16:01:07;99531.56;;;19.15;82.20
79584;BME280;69053;57.338;18.700;2023-08-01T16:04:08;99530.00;;;19.09;82.65
79584;BME280;69053;57.338;18.700;2023-08-01T16:07:11;99532.03;;;19.03;82.69
79584;BME280;69053;57.338;18.700;2023-08-01T16:10:15;99527.19;;;18.95;83.00
79584;BME280;69053;57.338;18.700;2023-08-01T16:13:18;99521.75;;;18.90;83.59
79584;BME280;69053;57.338;18.700;2023-08-01T16:16:22;99517.13;;;18.85;83.49
79584;BME280;69053;57.338;18.700;2023-08-01T16:19:25;99521.31;;;18.83;83.75
79584;BME280;69053;57.338;18.700;2023-08-01T16:22:26;99526.06;;;18.77;83.92
79584;BME280;69053;57.338;18.700;2023-08-01T16:25:26;99526.38;;;18.76;84.17
79584;BME280;69053;57.338;18.700;2023-08-01T16:28:27;99529.72;;;18.72;84.35
79584;BME280;69053;57.338;18.700;2023-08-01T16:31:28;99525.41;;;18.66;84.31
79584;BME280;69053;57.338;18.700;2023-08-01T16:34:28;99520.25;;;18.60;84.59
79584;BME280;69053;57.338;18.700;2023-08-01T16:37:29;99525.25;;;18.58;84.93
79584;BME280;69053;57.338;18.700;2023-08-01T16:40:30;99521.19;;;18.55;84.89
79584;BME280;69053;57.338;18.700;2023-08-01T16:43:31;99529.81;;;18.48;84.97
79584;BME280;69053;57.338;18.700;2023-08-01T16:46:32;99521.63;;;18.43;85.20
79584;BME280;69053;57.338;18.700;2023-08-01T16:49:32;99523.31;;;18.39;85.21
79584;BME280;69053;57.338;18.700;2023-08-01T16:52:34;99525.56;;;18.37;85.38
79584;BME280;69053;57.338;18.700;2023-08-01T16:55:36;99526.44;;;18.32;85.33
79584;BME280;69053;57.338;18.700;2023-08-01T16:58:43;99519.59;;;18.30;85.67
79584;BME280;69053;57.338;18.700;2023-08-01T17:05:47;99524.13;;;18.21;85.80
79584;BME280;69053;57.338;18.700;2023-08-01T17:12:45;99524.22;;;18.15;86.10
79584;BME280;69053;57.338;18.700;2023-08-01T17:15:46;99518.44;;;18.12;85.97
79584;BME280;69053;57.338;18.700;2023-08-01T17:18:46;99518.22;;;18.08;86.05
79584;BME280;69053;57.338;18.700;2023-08-01T17:21:47;99516.06;;;18.05;86.42
79584;BME280;69053;57.338;18.700;2023-08-01T17:24:48;99514.19;;;18.01;86.62
79584;BME280;69053;57.338;18.700;2023-08-01T17:27:48;99522.53;;;17.95;87.10
79584;BME280;69053;57.338;18.700;2023-08-01T17:30:49;99520.34;;;17.92;86.90
79584;BME280;69053;57.338;18.700;2023-08-01T17:33:51;99520.13;;;17.89;87.24
79584;BME280;69053;57.338;18.700;2023-08-01T17:36:52;99521.53;;;17.86;87.25
79584;BME280;69053;57.338;18.700;2023-08-01T17:39:52;99519.03;;;17.85;87.33